createdAt,value
2022-09-30T00:01:47.034Z,3.00
2022-09-30T00:04:17.981Z,3.00
2022-09-30T00:06:47.174Z,3.00
2022-09-30T00:09:16.376Z,3.00
2022-09-30T00:11:47.937Z,3.00
2022-09-30T00:14:18.923Z,3.00
2022-09-30T00:16:48.194Z,2.90
2022-09-30T00:19:17.346Z,2.90
2022-09-30T00:21:46.051Z,2.90
2022-09-30T00:24:14.924Z,2.90
2022-09-30T00:26:43.596Z,2.90
2022-09-30T00:29:13.745Z,2.90
2022-09-30T00:31:42.363Z,2.90
2022-09-30T00:34:12.302Z,2.80
2022-09-30T00:36:44.993Z,2.70
2022-09-30T00:43:02.199Z,2.60
2022-09-30T00:45:34.499Z,2.60
2022-09-30T00:48:08.405Z,2.60
2022-09-30T00:50:42.585Z,2.60
2022-09-30T00:53:15.703Z,2.60
2022-09-30T00:55:53.291Z,2.70
2022-09-30T00:58:26.962Z,2.70
2022-09-30T01:00:58.721Z,2.70
2022-09-30T01:03:27.686Z,2.70
2022-09-30T01:05:57.064Z,2.70
2022-09-30T01:08:27.377Z,2.60
2022-09-30T01:10:56.078Z,2.60
2022-09-30T01:13:27.855Z,2.50
2022-09-30T01:16:10.277Z,2.50
2022-09-30T01:18:49.835Z,2.50
2022-09-30T01:21:48.098Z,2.50
2022-09-30T01:24:32.569Z,2.50
2022-09-30T01:27:24.604Z,2.50
2022-09-30T01:30:14.692Z,2.50
2022-09-30T01:33:12.962Z,2.50
2022-09-30T01:36:02.686Z,2.60
2022-09-30T01:38:37.282Z,2.60
2022-09-30T01:41:10.544Z,2.60
2022-09-30T01:43:45.672Z,2.60
2022-09-30T01:46:30.251Z,2.60
2022-09-30T01:49:10.312Z,2.60
2022-09-30T01:51:44.809Z,2.70
2022-09-30T01:54:19.230Z,2.70
2022-09-30T01:56:51.041Z,2.70
2022-09-30T01:59:23.733Z,2.70
2022-09-30T02:01:57.606Z,2.70
2022-09-30T02:04:42.335Z,2.70
2022-09-30T02:07:19.755Z,2.70
2022-09-30T02:09:53.930Z,2.70
2022-09-30T02:12:26.054Z,2.80
2022-09-30T02:15:00.571Z,2.70
2022-09-30T02:17:32.210Z,2.70
2022-09-30T02:20:07.350Z,2.70
2022-09-30T02:22:42.671Z,2.70
2022-09-30T02:25:15.339Z,2.60
2022-09-30T02:27:48.439Z,2.60
2022-09-30T02:30:17.843Z,2.50
2022-09-30T02:32:50.761Z,2.50
2022-09-30T02:35:25.672Z,2.50
2022-09-30T02:37:57.653Z,2.50
2022-09-30T02:40:32.946Z,2.50
2022-09-30T02:43:03.485Z,2.50
2022-09-30T02:45:40.077Z,2.50
2022-09-30T02:48:19.302Z,2.50
2022-09-30T02:50:54.631Z,2.50
2022-09-30T02:53:29.269Z,2.50
2022-09-30T02:56:16.089Z,2.40
2022-09-30T02:58:46.964Z,2.40
2022-09-30T03:01:17.082Z,2.40
2022-09-30T03:03:49.712Z,2.40
2022-09-30T03:06:20.339Z,2.40
2022-09-30T03:08:49.166Z,2.40
2022-09-30T03:11:20.706Z,2.40
2022-09-30T03:14:19.282Z,2.30
2022-09-30T03:17:20.271Z,2.30
2022-09-30T03:20:01.860Z,2.40
2022-09-30T03:22:56.967Z,2.40
2022-09-30T03:25:34.044Z,2.40
2022-09-30T03:28:12.280Z,2.40
2022-09-30T03:30:51.161Z,2.40
2022-09-30T03:33:24.610Z,2.30
2022-09-30T03:36:00.966Z,2.30
2022-09-30T03:38:41.566Z,2.40
2022-09-30T03:41:18.514Z,2.40
2022-09-30T03:43:52.125Z,2.40
2022-09-30T03:46:26.293Z,2.40
2022-09-30T03:48:57.632Z,2.40
2022-09-30T03:51:27.198Z,2.40
2022-09-30T03:53:57.701Z,2.50
2022-09-30T03:56:27.619Z,2.60
2022-09-30T03:58:58.168Z,2.50
2022-09-30T04:01:26.911Z,2.60
2022-09-30T04:03:55.954Z,2.60
2022-09-30T04:06:25.982Z,2.60
2022-09-30T04:08:55.250Z,2.60
2022-09-30T04:11:25.424Z,2.50
2022-09-30T04:13:54.081Z,2.50
2022-09-30T04:16:22.808Z,2.60
2022-09-30T04:18:52.125Z,2.60
2022-09-30T04:21:20.729Z,2.50
2022-09-30T04:23:49.392Z,2.60
2022-09-30T04:26:20.364Z,2.50
2022-09-30T04:28:50.788Z,2.60
2022-09-30T04:31:21.987Z,2.60
2022-09-30T04:33:50.907Z,2.60
2022-09-30T04:36:20.006Z,2.60
2022-09-30T04:38:49.248Z,2.60
2022-09-30T04:41:19.113Z,2.60
2022-09-30T04:43:50.126Z,2.60
2022-09-30T04:46:20.713Z,2.70
2022-09-30T04:48:51.393Z,2.60
2022-09-30T04:51:21.962Z,2.70
2022-09-30T04:53:51.429Z,2.70
2022-09-30T04:56:20.087Z,2.80
2022-09-30T04:58:50.194Z,2.90
2022-09-30T05:01:20.079Z,2.90
2022-09-30T05:03:49.096Z,3.00
2022-09-30T05:06:18.327Z,3.00
2022-09-30T05:08:47.173Z,3.00
2022-09-30T05:11:18.858Z,3.10
2022-09-30T05:13:49.841Z,3.10
2022-09-30T05:16:22.349Z,3.10
2022-09-30T05:18:52.615Z,3.10
2022-09-30T05:21:21.493Z,3.10
2022-09-30T05:23:50.361Z,3.10
2022-09-30T05:26:18.988Z,3.20
2022-09-30T05:28:48.114Z,3.20
2022-09-30T05:31:18.359Z,3.20
2022-09-30T05:33:48.107Z,3.20
2022-09-30T05:36:17.962Z,3.20
2022-09-30T05:38:46.624Z,3.30
2022-09-30T05:41:15.854Z,3.30
2022-09-30T05:43:48.069Z,3.30
2022-09-30T05:46:18.934Z,3.40
2022-09-30T05:48:48.476Z,3.40
2022-09-30T05:51:17.100Z,3.40
2022-09-30T05:53:46.172Z,3.40
2022-09-30T05:56:15.749Z,3.50
2022-09-30T05:58:44.469Z,3.50
2022-09-30T06:01:14.664Z,3.60
2022-09-30T06:03:45.378Z,3.70
2022-09-30T06:06:14.484Z,3.70
2022-09-30T06:08:44.698Z,3.80
2022-09-30T06:11:15.133Z,3.80
2022-09-30T06:13:45.105Z,3.90
2022-09-30T06:16:14.110Z,3.90
2022-09-30T06:18:44.186Z,4.00
2022-09-30T06:21:15.586Z,4.10
2022-09-30T06:23:44.501Z,4.10
2022-09-30T06:26:14.660Z,4.20
2022-09-30T06:28:44.360Z,4.30
2022-09-30T06:31:13.195Z,4.40
2022-09-30T06:33:43.855Z,4.50
2022-09-30T06:36:12.534Z,4.70
2022-09-30T06:38:41.183Z,4.70
2022-09-30T06:41:10.604Z,4.80
2022-09-30T06:43:45.246Z,4.80
2022-09-30T06:46:23.881Z,4.90
2022-09-30T06:49:22.672Z,5.00
2022-09-30T06:51:51.608Z,5.00
2022-09-30T06:54:20.878Z,5.00
2022-09-30T06:56:49.597Z,5.00
2022-09-30T06:59:18.647Z,5.10
2022-09-30T07:01:47.364Z,5.10
2022-09-30T07:04:17.695Z,5.10
2022-09-30T07:06:46.643Z,5.10
2022-09-30T07:09:15.910Z,5.20
2022-09-30T07:11:45.084Z,5.30
2022-09-30T07:14:14.430Z,5.40
2022-09-30T07:16:44.904Z,5.30
2022-09-30T07:19:14.830Z,5.60
2022-09-30T07:21:45.004Z,5.70
2022-09-30T07:24:13.661Z,5.90
2022-09-30T07:26:42.523Z,6.10
2022-09-30T07:29:11.212Z,6.40
2022-09-30T07:31:40.071Z,6.50
2022-09-30T07:34:10.738Z,6.90
2022-09-30T07:36:41.964Z,7.00
2022-09-30T07:39:12.820Z,7.10
2022-09-30T07:41:43.987Z,7.20
2022-09-30T07:44:15.259Z,7.20
2022-09-30T07:46:45.517Z,7.30
2022-09-30T07:49:16.319Z,7.50
2022-09-30T07:51:45.787Z,7.80
2022-09-30T07:54:18.053Z,8.20
2022-09-30T07:59:38.974Z,8.90
2022-09-30T08:02:15.410Z,9.20
2022-09-30T08:04:44.813Z,9.50
2022-09-30T08:07:14.936Z,9.80
2022-09-30T08:09:45.332Z,10.00
2022-09-30T08:12:13.953Z,10.10
2022-09-30T08:14:42.723Z,10.20
2022-09-30T08:17:11.411Z,10.30
2022-09-30T08:19:44.217Z,10.40
2022-09-30T08:22:14.241Z,10.50
2022-09-30T08:24:44.742Z,10.60
2022-09-30T08:27:13.417Z,10.80
2022-09-30T08:29:54.315Z,10.90
2022-09-30T08:32:23.587Z,11.10
2022-09-30T08:34:52.269Z,11.20
2022-09-30T08:37:20.892Z,11.20
2022-09-30T08:39:50.997Z,11.30
2022-09-30T08:42:50.576Z,11.30
2022-09-30T08:45:32.930Z,11.40
2022-09-30T08:48:18.631Z,11.40
2022-09-30T08:50:58.744Z,11.60
2022-09-30T08:53:30.782Z,11.70
2022-09-30T08:56:02.945Z,11.90
2022-09-30T08:58:34.242Z,12.20
2022-09-30T09:01:15.011Z,12.40
2022-09-30T09:03:45.538Z,12.70
2022-09-30T09:06:24.694Z,12.90
2022-09-30T09:09:18.558Z,13.10
2022-09-30T09:12:03.260Z,13.20
2022-09-30T09:14:41.256Z,13.40
2022-09-30T09:17:25.159Z,13.50
2022-09-30T09:20:01.799Z,13.50
2022-09-30T09:22:31.796Z,13.60
2022-09-30T09:25:01.613Z,13.70
2022-09-30T09:27:44.783Z,13.80
2022-09-30T09:30:16.186Z,13.80
2022-09-30T09:32:47.396Z,14.00
2022-09-30T09:35:19.013Z,14.20
2022-09-30T09:38:17.361Z,14.40
2022-09-30T09:40:58.546Z,14.50
2022-09-30T09:43:46.590Z,14.60
2022-09-30T09:46:21.410Z,14.70
2022-09-30T09:48:51.542Z,14.90
2022-09-30T09:51:28.094Z,15.00
2022-09-30T09:53:59.645Z,15.00
2022-09-30T09:56:32.422Z,15.10
2022-09-30T09:59:24.268Z,15.20
2022-09-30T10:01:55.029Z,15.40
2022-09-30T10:04:26.751Z,15.50
2022-09-30T10:06:58.211Z,15.60
2022-09-30T10:09:32.792Z,15.70
2022-09-30T10:12:30.801Z,15.70
2022-09-30T10:15:14.233Z,15.80
2022-09-30T10:17:43.448Z,15.90
2022-09-30T10:20:30.857Z,16.00
2022-09-30T10:23:06.111Z,16.00
2022-09-30T10:25:38.579Z,16.00
2022-09-30T10:28:24.224Z,16.00
2022-09-30T10:30:58.746Z,15.90
2022-09-30T10:33:31.173Z,16.00
2022-09-30T10:36:10.499Z,16.00
2022-09-30T10:38:47.173Z,15.90
2022-09-30T10:41:22.703Z,15.70
2022-09-30T10:43:54.708Z,15.70
2022-09-30T10:46:28.186Z,15.60
2022-09-30T10:48:59.210Z,15.80
2022-09-30T10:51:36.480Z,15.80
2022-09-30T10:54:06.567Z,15.90
2022-09-30T10:56:41.810Z,16.00
2022-09-30T10:59:33.422Z,16.10
2022-09-30T11:02:15.278Z,16.30
2022-09-30T11:04:51.258Z,16.40
2022-09-30T11:07:27.479Z,16.40
2022-09-30T11:10:02.320Z,16.40
2022-09-30T11:12:40.752Z,16.40
2022-09-30T11:15:18.231Z,16.50
2022-09-30T11:17:56.857Z,16.50
2022-09-30T11:20:29.945Z,16.60
2022-09-30T11:23:08.104Z,16.60
2022-09-30T11:25:44.643Z,16.60
2022-09-30T11:28:36.840Z,16.60
2022-09-30T11:31:17.003Z,16.60
2022-09-30T11:33:57.432Z,16.60
2022-09-30T11:36:33.727Z,16.60
2022-09-30T11:39:28.679Z,16.50
2022-09-30T11:42:06.752Z,16.60
2022-09-30T11:44:38.199Z,16.60
2022-09-30T11:47:46.660Z,16.60
2022-09-30T11:50:34.096Z,16.70
2022-09-30T11:53:14.867Z,16.80
2022-09-30T11:55:57.750Z,16.80
2022-09-30T11:58:46.830Z,16.90
2022-09-30T12:01:23.771Z,16.80
2022-09-30T12:04:00.971Z,16.80
2022-09-30T12:06:36.597Z,16.70
2022-09-30T12:09:21.222Z,16.50
2022-09-30T12:11:55.193Z,16.50
2022-09-30T12:14:30.972Z,16.50
2022-09-30T12:17:04.424Z,16.50
2022-09-30T12:19:38.150Z,16.50
2022-09-30T12:22:14.492Z,16.40
2022-09-30T12:24:45.932Z,16.40
2022-09-30T12:27:25.388Z,16.40
2022-09-30T12:30:17.959Z,16.30
2022-09-30T12:33:18.139Z,16.40
2022-09-30T12:36:22.300Z,16.40
2022-09-30T12:39:22.012Z,16.30
2022-09-30T12:42:03.651Z,16.20
2022-09-30T12:44:55.468Z,16.10
2022-09-30T12:47:35.018Z,16.10
2022-09-30T12:50:08.728Z,16.00
2022-09-30T12:52:38.637Z,15.90
2022-09-30T12:55:20.139Z,15.90
2022-09-30T12:57:51.489Z,16.00
2022-09-30T13:00:22.695Z,16.00
2022-09-30T13:02:57.606Z,16.00
2022-09-30T13:06:06.678Z,16.10
2022-09-30T13:09:04.239Z,16.30
2022-09-30T13:11:42.772Z,16.40
2022-09-30T13:14:26.091Z,16.40
2022-09-30T13:17:03.384Z,16.30
2022-09-30T13:19:37.925Z,16.30
2022-09-30T13:22:51.974Z,16.20
2022-09-30T13:25:20.619Z,16.00
2022-09-30T13:27:54.145Z,15.90
2022-09-30T13:30:42.272Z,15.80
2022-09-30T13:33:48.400Z,15.70
2022-09-30T13:36:32.582Z,15.70
2022-09-30T13:39:18.337Z,15.60
2022-09-30T13:41:55.066Z,15.50
2022-09-30T13:44:33.574Z,15.50
2022-09-30T13:47:09.987Z,15.40
2022-09-30T13:49:44.952Z,15.40
2022-09-30T13:52:22.823Z,15.40
2022-09-30T13:54:55.045Z,15.40
2022-09-30T13:57:29.219Z,15.40
2022-09-30T14:00:07.751Z,15.40
2022-09-30T14:03:05.313Z,15.50
2022-09-30T14:05:51.368Z,15.50
2022-09-30T14:08:54.887Z,15.50
2022-09-30T14:12:07.722Z,15.50
2022-09-30T14:15:06.785Z,15.50
2022-09-30T14:17:50.862Z,15.50
2022-09-30T14:20:48.433Z,15.40
2022-09-30T14:23:18.452Z,15.40
2022-09-30T14:26:01.150Z,15.30
2022-09-30T14:28:37.685Z,15.20
2022-09-30T14:31:13.708Z,15.10
2022-09-30T14:33:45.865Z,15.00
2022-09-30T14:36:32.913Z,14.90
2022-09-30T14:39:04.221Z,14.90
2022-09-30T14:41:34.917Z,14.80
2022-09-30T14:44:06.235Z,14.60
2022-09-30T14:46:36.951Z,14.50
2022-09-30T14:49:09.902Z,14.50
2022-09-30T14:51:43.684Z,14.40
2022-09-30T14:54:20.025Z,14.30
2022-09-30T14:56:49.834Z,14.50
2022-09-30T14:59:20.509Z,14.20
2022-09-30T15:01:52.562Z,14.20
2022-09-30T15:04:26.712Z,14.10
2022-09-30T15:06:56.932Z,14.00
2022-09-30T15:09:29.622Z,14.00
2022-09-30T15:11:59.760Z,13.80
2022-09-30T15:14:28.862Z,13.80
2022-09-30T15:17:01.424Z,13.80
2022-09-30T15:19:43.876Z,13.70
2022-09-30T15:22:15.869Z,13.60
2022-09-30T15:24:45.474Z,13.50
2022-09-30T15:27:19.885Z,13.40
2022-09-30T15:29:59.132Z,13.30
2022-09-30T15:32:30.092Z,13.30
2022-09-30T15:35:05.721Z,13.20
2022-09-30T15:37:35.530Z,13.20
2022-09-30T15:40:22.269Z,13.10
2022-09-30T15:42:59.802Z,13.00
2022-09-30T15:45:35.754Z,13.00
2022-09-30T15:48:07.499Z,12.90
2022-09-30T15:50:45.675Z,12.90
2022-09-30T15:53:24.145Z,12.80
2022-09-30T15:55:55.861Z,12.80
2022-09-30T15:58:39.232Z,12.80
2022-09-30T16:01:15.557Z,12.70
2022-09-30T16:03:50.922Z,12.70
2022-09-30T16:06:26.373Z,12.60
2022-09-30T16:09:01.746Z,12.60
2022-09-30T16:11:35.071Z,12.60
2022-09-30T16:14:06.344Z,12.50
2022-09-30T16:16:37.109Z,12.40
2022-09-30T16:19:06.586Z,12.40
2022-09-30T16:21:50.791Z,12.40
2022-09-30T16:24:50.635Z,12.40
2022-09-30T16:27:30.244Z,12.30
2022-09-30T16:30:00.311Z,12.30
2022-09-30T16:32:33.129Z,12.20
2022-09-30T16:35:05.353Z,12.20
2022-09-30T16:37:36.413Z,12.20
2022-09-30T16:40:17.987Z,12.10
2022-09-30T16:42:47.564Z,12.10
2022-09-30T16:45:17.135Z,12.00
2022-09-30T16:47:46.449Z,12.00
2022-09-30T16:50:23.952Z,12.00
2022-09-30T16:52:54.096Z,12.00
2022-09-30T16:55:22.978Z,11.90
2022-09-30T16:57:51.676Z,11.90
2022-09-30T17:00:20.576Z,11.90
2022-09-30T17:02:51.406Z,11.90
2022-09-30T17:05:22.475Z,11.90
2022-09-30T17:07:55.707Z,11.90
2022-09-30T17:10:29.082Z,11.80
2022-09-30T17:13:00.705Z,11.80
2022-09-30T17:15:31.620Z,11.80
2022-09-30T17:18:00.805Z,11.80
2022-09-30T17:20:30.019Z,11.80
2022-09-30T17:23:03.644Z,11.80
2022-09-30T17:25:35.194Z,11.80
2022-09-30T17:28:03.928Z,11.80
2022-09-30T17:30:34.328Z,11.70
2022-09-30T17:33:03.565Z,11.70
2022-09-30T17:35:33.949Z,11.70
2022-09-30T17:38:07.512Z,11.70
2022-09-30T17:41:02.639Z,11.70
2022-09-30T17:43:33.615Z,11.70
2022-09-30T17:46:02.674Z,11.70
2022-09-30T17:48:31.444Z,11.70
2022-09-30T17:51:00.627Z,11.70
2022-09-30T17:53:31.123Z,11.70
2022-09-30T17:56:04.231Z,11.70
2022-09-30T17:58:35.133Z,11.70
2022-09-30T18:01:08.239Z,11.70
2022-09-30T18:03:37.811Z,11.70
2022-09-30T18:06:07.657Z,11.70
2022-09-30T18:08:38.565Z,11.70
2022-09-30T18:11:10.969Z,11.70
2022-09-30T18:13:40.160Z,11.60
2022-09-30T18:16:09.495Z,11.60
2022-09-30T18:18:39.131Z,11.60
2022-09-30T18:21:08.542Z,11.60
2022-09-30T18:23:39.516Z,11.60
2022-09-30T18:26:10.045Z,11.50
2022-09-30T18:28:39.824Z,11.50
2022-09-30T18:31:10.103Z,11.50
2022-09-30T18:33:39.710Z,11.50
2022-09-30T18:36:10.208Z,11.50
2022-09-30T18:38:41.115Z,11.50
2022-09-30T18:41:11.763Z,11.50
2022-09-30T18:43:41.797Z,11.50
2022-09-30T18:46:14.533Z,11.50
2022-09-30T18:48:49.909Z,11.50
2022-09-30T18:51:20.430Z,11.50
2022-09-30T18:54:01.855Z,11.50
2022-09-30T18:56:33.525Z,11.40
2022-09-30T19:01:39.651Z,11.40
2022-09-30T19:04:09.328Z,11.40
2022-09-30T19:06:41.233Z,11.30
2022-09-30T19:09:12.457Z,11.30
2022-09-30T19:11:43.582Z,11.30
2022-09-30T19:14:15.237Z,11.30
2022-09-30T19:16:46.715Z,11.30
2022-09-30T19:19:18.028Z,11.30
2022-09-30T19:21:47.631Z,11.30
2022-09-30T19:24:25.310Z,11.30
2022-09-30T19:26:57.577Z,11.30
2022-09-30T19:29:26.603Z,11.30
2022-09-30T19:31:57.652Z,11.40
2022-09-30T19:34:32.025Z,11.40
2022-09-30T19:37:01.805Z,11.40
2022-09-30T19:39:42.532Z,11.40
2022-09-30T19:42:18.501Z,11.40
2022-09-30T19:44:49.599Z,11.30
2022-09-30T19:47:19.170Z,11.30
2022-09-30T19:49:47.962Z,11.30
2022-09-30T19:52:21.892Z,11.30
2022-09-30T19:54:56.465Z,11.30
2022-09-30T19:57:35.250Z,11.40
2022-09-30T20:00:05.551Z,11.30
2022-09-30T20:02:35.509Z,11.30
2022-09-30T20:05:05.553Z,11.20
2022-09-30T20:07:35.519Z,11.20
2022-09-30T20:10:08.015Z,11.20
2022-09-30T20:12:36.916Z,11.20
2022-09-30T20:15:23.520Z,11.20
2022-09-30T20:17:52.714Z,11.30
2022-09-30T20:20:37.552Z,11.10
2022-09-30T20:23:07.066Z,11.10
2022-09-30T20:25:38.703Z,11.10
2022-09-30T20:28:08.327Z,11.10
2022-09-30T20:30:43.418Z,11.10
2022-09-30T20:33:17.334Z,11.20
2022-09-30T20:35:48.367Z,11.20
2022-09-30T20:38:21.577Z,11.20
2022-09-30T20:40:55.770Z,11.20
2022-09-30T20:43:26.995Z,11.10
2022-09-30T20:45:56.814Z,11.20
2022-09-30T20:48:28.811Z,11.20
2022-09-30T20:51:00.191Z,11.20
2022-09-30T20:53:28.995Z,11.10
2022-09-30T20:56:02.610Z,11.10
2022-09-30T20:58:31.361Z,11.10
2022-09-30T21:01:03.769Z,11.10
2022-09-30T21:03:36.201Z,11.10
2022-09-30T21:06:05.403Z,11.10
2022-09-30T21:08:39.019Z,11.10
2022-09-30T21:11:09.465Z,11.10
2022-09-30T21:13:44.157Z,11.10
2022-09-30T21:16:15.159Z,11.10
2022-09-30T21:18:44.285Z,11.00
2022-09-30T21:21:14.635Z,11.10
2022-09-30T21:23:43.873Z,11.10
2022-09-30T21:26:15.332Z,11.10
2022-09-30T21:28:48.776Z,11.00
2022-09-30T21:31:20.676Z,11.00
2022-09-30T21:33:52.189Z,11.00
2022-09-30T21:36:22.286Z,11.00
2022-09-30T21:38:52.225Z,11.00
2022-09-30T21:41:23.138Z,11.00
2022-09-30T21:43:51.803Z,11.00
2022-09-30T21:46:20.730Z,11.00
2022-09-30T21:48:49.740Z,11.00
2022-09-30T21:51:18.451Z,11.00
2022-09-30T21:53:48.988Z,11.00
2022-09-30T21:56:21.391Z,11.00
2022-09-30T21:58:50.120Z,11.00
2022-09-30T22:01:18.784Z,11.00
2022-09-30T22:03:47.660Z,11.00
2022-09-30T22:06:19.003Z,10.90
2022-09-30T22:08:47.674Z,10.90
2022-09-30T22:11:17.949Z,11.00
2022-09-30T22:13:48.491Z,10.90
2022-09-30T22:16:20.008Z,10.90
2022-09-30T22:18:48.770Z,10.90
2022-09-30T22:21:17.977Z,10.90
2022-09-30T22:23:49.301Z,10.80
2022-09-30T22:26:19.513Z,10.80
2022-09-30T22:28:50.528Z,10.80
2022-09-30T22:31:20.773Z,10.80
2022-09-30T22:34:07.664Z,10.80
2022-09-30T22:36:53.918Z,10.80
2022-09-30T22:39:23.892Z,10.80
2022-09-30T22:41:54.401Z,10.80
2022-09-30T22:44:25.925Z,10.80
2022-09-30T22:46:55.506Z,10.80
2022-09-30T22:49:25.528Z,10.80
2022-09-30T22:51:54.653Z,10.80
2022-09-30T22:54:24.458Z,10.80
2022-09-30T22:56:54.982Z,10.80
2022-09-30T22:59:26.078Z,10.70
2022-09-30T23:01:55.607Z,10.70
2022-09-30T23:04:26.440Z,10.70
2022-09-30T23:06:56.686Z,10.70
2022-09-30T23:09:25.680Z,10.70
2022-09-30T23:11:57.239Z,10.70
2022-09-30T23:14:27.435Z,10.70
2022-09-30T23:16:56.162Z,10.60
2022-09-30T23:19:25.038Z,10.60
2022-09-30T23:21:53.904Z,10.60
2022-09-30T23:24:22.626Z,10.60
2022-09-30T23:26:51.314Z,10.60
2022-09-30T23:29:20.327Z,10.60
2022-09-30T23:31:50.641Z,10.60
2022-09-30T23:34:19.536Z,10.60
2022-09-30T23:36:48.397Z,10.60
2022-09-30T23:39:20.391Z,10.60
2022-09-30T23:41:50.005Z,10.60
2022-09-30T23:44:19.605Z,10.60
2022-09-30T23:47:07.686Z,10.60
2022-09-30T23:49:36.544Z,10.60
2022-09-30T23:52:09.190Z,10.60
2022-09-30T23:54:40.610Z,10.60
2022-09-30T23:57:10.102Z,10.60
2022-09-30T23:59:39.154Z,10.60
